createdAt,value
2016-08-18T00:00:36.223Z,0
2016-08-18T00:01:36.267Z,0
2016-08-18T00:02:36.241Z,0
2016-08-18T00:03:36.257Z,0
2016-08-18T00:04:36.251Z,0
2016-08-18T00:05:36.972Z,0
2016-08-18T00:06:36.293Z,0
2016-08-18T00:07:36.287Z,0
2016-08-18T00:08:36.291Z,0
2016-08-18T00:09:36.299Z,0
2016-08-18T00:10:36.302Z,0
2016-08-18T00:11:36.279Z,0
2016-08-18T00:12:37.002Z,0
2016-08-18T00:13:36.303Z,0
2016-08-18T00:14:36.350Z,0
2016-08-18T00:15:36.308Z,0
2016-08-18T00:16:36.337Z,0
2016-08-18T00:17:36.365Z,0
2016-08-18T00:18:37.030Z,0
2016-08-18T00:19:36.343Z,0
2016-08-18T00:20:36.352Z,0
2016-08-18T00:21:36.359Z,0
2016-08-18T00:22:36.379Z,0
2016-08-18T00:23:36.401Z,0
2016-08-18T00:24:36.425Z,0
2016-08-18T00:25:36.402Z,0
2016-08-18T00:26:36.395Z,0
2016-08-18T00:27:37.134Z,0
2016-08-18T00:28:36.434Z,0
2016-08-18T00:29:36.409Z,0
2016-08-18T00:30:36.444Z,0
2016-08-18T00:31:36.423Z,0
2016-08-18T00:32:36.431Z,0
2016-08-18T00:33:36.451Z,0
2016-08-18T00:34:36.452Z,0
2016-08-18T00:35:36.460Z,0
2016-08-18T00:36:36.463Z,0
2016-08-18T00:37:36.473Z,0
2016-08-18T00:38:36.464Z,0
2016-08-18T00:39:36.530Z,0
2016-08-18T00:40:36.500Z,0
2016-08-18T00:41:36.514Z,0
2016-08-18T00:42:36.518Z,0
2016-08-18T00:43:37.275Z,0
2016-08-18T00:44:36.738Z,0
2016-08-18T00:45:36.550Z,0
2016-08-18T00:46:36.552Z,0
2016-08-18T00:47:36.544Z,0
2016-08-18T00:48:36.538Z,0
2016-08-18T00:49:36.563Z,0
2016-08-18T00:50:36.572Z,0
2016-08-18T00:51:36.580Z,0
2016-08-18T00:52:36.600Z,0
2016-08-18T00:53:36.623Z,0
2016-08-18T00:54:36.609Z,0
2016-08-18T00:55:36.639Z,0
2016-08-18T00:56:36.658Z,0
2016-08-18T00:57:36.609Z,0
2016-08-18T00:58:36.634Z,0
2016-08-18T00:59:36.641Z,0
2016-08-18T01:00:36.656Z,0
2016-08-18T01:01:36.667Z,0
2016-08-18T01:02:36.681Z,0
2016-08-18T01:03:36.649Z,0
2016-08-18T01:04:36.675Z,0
2016-08-18T01:05:36.674Z,0
2016-08-18T01:06:36.656Z,0
2016-08-18T01:07:37.402Z,0
2016-08-18T01:08:36.687Z,0
2016-08-18T01:09:36.715Z,0
2016-08-18T01:10:36.718Z,0
2016-08-18T01:11:36.762Z,0
2016-08-18T01:12:36.723Z,0
2016-08-18T01:13:36.717Z,0
2016-08-18T01:14:36.734Z,0
2016-08-18T01:15:36.742Z,0
2016-08-18T01:16:36.722Z,0
2016-08-18T01:17:36.769Z,0
2016-08-18T01:18:36.765Z,0
2016-08-18T01:19:36.755Z,0
2016-08-18T01:20:36.792Z,0
2016-08-18T01:21:36.810Z,0
2016-08-18T01:22:36.781Z,0
2016-08-18T01:23:36.808Z,0
2016-08-18T01:24:36.800Z,0
2016-08-18T01:25:36.788Z,0
2016-08-18T01:26:37.537Z,0
2016-08-18T01:27:36.822Z,0
2016-08-18T01:28:36.856Z,0
2016-08-18T01:29:36.855Z,0
2016-08-18T01:30:36.847Z,0
2016-08-18T01:31:36.854Z,0
2016-08-18T01:32:36.859Z,0
2016-08-18T01:33:36.875Z,0
2016-08-18T01:34:36.870Z,0
2016-08-18T01:35:36.870Z,0
2016-08-18T01:36:36.860Z,0
2016-08-18T01:37:36.891Z,0
2016-08-18T01:38:36.906Z,0
2016-08-18T01:39:36.892Z,0
2016-08-18T01:40:36.912Z,0
2016-08-18T01:41:36.937Z,0
2016-08-18T01:42:36.930Z,0
2016-08-18T01:43:37.604Z,0
2016-08-18T01:44:38.747Z,0
2016-08-18T01:45:36.952Z,0
2016-08-18T01:46:36.960Z,0
2016-08-18T01:47:36.939Z,0
2016-08-18T01:48:36.965Z,0
2016-08-18T01:49:36.994Z,0
2016-08-18T01:50:36.981Z,0
2016-08-18T01:51:36.977Z,0
2016-08-18T01:52:36.999Z,0
2016-08-18T01:53:37.006Z,0
2016-08-18T01:54:37.014Z,0
2016-08-18T01:55:37.022Z,0
2016-08-18T01:56:37.034Z,0
2016-08-18T01:57:37.022Z,0
2016-08-18T01:58:37.019Z,0
2016-08-18T01:59:37.051Z,0
2016-08-18T02:00:37.061Z,0
2016-08-18T02:01:37.046Z,0
2016-08-18T02:02:37.051Z,0
2016-08-18T02:03:37.034Z,0
2016-08-18T02:04:37.078Z,0
2016-08-18T02:05:37.077Z,0
2016-08-18T02:06:37.066Z,0
2016-08-18T02:07:37.116Z,0
2016-08-18T02:08:37.100Z,0
2016-08-18T02:09:37.106Z,0
2016-08-18T02:10:37.080Z,0
2016-08-18T02:11:37.125Z,0
2016-08-18T02:12:37.101Z,0
2016-08-18T02:13:37.131Z,0
2016-08-18T02:14:37.170Z,0
2016-08-18T02:15:37.161Z,0
2016-08-18T02:16:37.147Z,0
2016-08-18T02:17:37.170Z,0
2016-08-18T02:18:37.176Z,0
2016-08-18T02:19:37.181Z,0
2016-08-18T02:20:37.171Z,0
2016-08-18T02:21:37.193Z,0
2016-08-18T02:22:37.176Z,0
2016-08-18T02:23:37.202Z,0
2016-08-18T02:24:37.220Z,0
2016-08-18T02:25:37.229Z,0
2016-08-18T02:26:37.235Z,0
2016-08-18T02:27:37.220Z,0
2016-08-18T02:28:37.207Z,0
2016-08-18T02:29:37.228Z,0
2016-08-18T02:30:37.267Z,0
2016-08-18T02:31:37.253Z,0
2016-08-18T02:32:37.242Z,0
2016-08-18T02:33:37.252Z,0
2016-08-18T02:34:37.265Z,0
2016-08-18T02:35:37.289Z,0
2016-08-18T02:36:37.281Z,0
2016-08-18T02:37:37.298Z,0
2016-08-18T02:38:37.312Z,0
2016-08-18T02:39:37.288Z,0
2016-08-18T02:40:37.320Z,0
2016-08-18T02:41:37.319Z,0
2016-08-18T02:42:37.364Z,0
2016-08-18T02:43:37.299Z,0
2016-08-18T02:44:38.166Z,0
2016-08-18T02:45:37.315Z,0
2016-08-18T02:46:37.331Z,0
2016-08-18T02:47:37.349Z,0
2016-08-18T02:48:37.368Z,0
2016-08-18T02:49:37.371Z,0
2016-08-18T02:50:37.360Z,0
2016-08-18T02:51:37.384Z,0
2016-08-18T02:52:37.390Z,0
2016-08-18T02:53:37.375Z,0
2016-08-18T02:54:37.403Z,0
2016-08-18T02:55:37.398Z,0
2016-08-18T02:56:37.403Z,0
2016-08-18T02:57:37.422Z,0
2016-08-18T02:58:37.422Z,0
2016-08-18T02:59:37.441Z,0
2016-08-18T03:00:37.416Z,0
2016-08-18T03:01:37.461Z,0
2016-08-18T03:02:37.432Z,0
2016-08-18T03:03:37.456Z,0
2016-08-18T03:04:37.447Z,0
2016-08-18T03:05:37.482Z,0
2016-08-18T03:06:37.456Z,0
2016-08-18T03:07:37.469Z,0
2016-08-18T03:08:37.468Z,0
2016-08-18T03:09:37.493Z,0
2016-08-18T03:10:37.509Z,0
2016-08-18T03:11:37.534Z,0
2016-08-18T03:12:37.522Z,0
2016-08-18T03:13:37.509Z,0
2016-08-18T03:14:37.551Z,0
2016-08-18T03:15:37.537Z,0
2016-08-18T03:16:37.543Z,0
2016-08-18T03:17:37.527Z,0
2016-08-18T03:18:37.566Z,0
2016-08-18T03:19:37.565Z,0
2016-08-18T03:20:37.559Z,0
2016-08-18T03:21:37.556Z,0
2016-08-18T03:22:37.557Z,0
2016-08-18T03:23:37.577Z,0
2016-08-18T03:24:37.605Z,0
2016-08-18T03:25:37.603Z,0
2016-08-18T03:26:37.604Z,0
2016-08-18T03:27:38.324Z,0
2016-08-18T03:28:37.629Z,0
2016-08-18T03:29:37.626Z,0
2016-08-18T03:30:37.636Z,0
2016-08-18T03:31:37.615Z,0
2016-08-18T03:32:37.652Z,0
2016-08-18T03:33:37.657Z,0
2016-08-18T03:34:37.661Z,0
2016-08-18T03:35:37.656Z,0
2016-08-18T03:36:37.646Z,0
2016-08-18T03:37:37.696Z,0
2016-08-18T03:38:37.666Z,0
2016-08-18T03:39:37.701Z,0
2016-08-18T03:40:37.700Z,0
2016-08-18T03:41:37.703Z,0
2016-08-18T03:42:37.693Z,0
2016-08-18T03:43:37.724Z,0
2016-08-18T03:44:37.776Z,0
2016-08-18T03:45:37.725Z,0
2016-08-18T03:46:37.737Z,0
2016-08-18T03:47:37.708Z,0
2016-08-18T03:48:37.716Z,0
2016-08-18T03:49:37.725Z,0
2016-08-18T03:50:37.773Z,0
2016-08-18T03:51:37.771Z,0
2016-08-18T03:52:37.778Z,0
2016-08-18T03:53:37.761Z,0
2016-08-18T03:54:37.782Z,0
2016-08-18T03:55:37.788Z,0
2016-08-18T03:56:37.766Z,0
2016-08-18T03:57:37.796Z,0
2016-08-18T03:58:37.822Z,0
2016-08-18T03:59:37.829Z,0
2016-08-18T04:00:37.819Z,0
2016-08-18T04:01:37.850Z,0
2016-08-18T04:02:37.832Z,0
2016-08-18T04:03:37.827Z,0
2016-08-18T04:04:37.840Z,0
2016-08-18T04:05:37.830Z,0
2016-08-18T04:06:37.853Z,0
2016-08-18T04:07:37.865Z,0
2016-08-18T04:08:37.907Z,0
2016-08-18T04:09:37.866Z,0
2016-08-18T04:10:37.914Z,0
2016-08-18T04:11:37.902Z,0
2016-08-18T04:12:37.892Z,0
2016-08-18T04:13:37.892Z,0
2016-08-18T04:14:37.912Z,0
2016-08-18T04:15:38.600Z,0
2016-08-18T04:16:37.925Z,0
2016-08-18T04:17:37.954Z,0
2016-08-18T04:18:37.946Z,0
2016-08-18T04:19:37.949Z,0
2016-08-18T04:20:37.967Z,0
2016-08-18T04:21:37.997Z,0
2016-08-18T04:22:37.959Z,0
2016-08-18T04:23:37.994Z,0
2016-08-18T04:24:37.957Z,0
2016-08-18T04:25:37.992Z,0
2016-08-18T04:26:37.984Z,0
2016-08-18T04:27:37.999Z,0
2016-08-18T04:28:37.987Z,0
2016-08-18T04:29:37.992Z,0
2016-08-18T04:30:38.011Z,0
2016-08-18T04:31:38.017Z,0
2016-08-18T04:32:38.012Z,0
2016-08-18T04:33:38.023Z,0
2016-08-18T04:34:38.049Z,0
2016-08-18T04:35:38.059Z,0
2016-08-18T04:36:38.048Z,0
2016-08-18T04:37:38.057Z,0
2016-08-18T04:38:38.058Z,0
2016-08-18T04:39:38.094Z,0
2016-08-18T04:40:38.073Z,0
2016-08-18T04:41:38.065Z,0
2016-08-18T04:42:38.112Z,0
2016-08-18T04:43:38.110Z,0
2016-08-18T04:44:38.218Z,0
2016-08-18T04:45:38.116Z,0
2016-08-18T04:46:38.126Z,0
2016-08-18T04:47:38.131Z,0
2016-08-18T04:48:38.146Z,0
2016-08-18T04:49:38.164Z,0
2016-08-18T04:50:38.147Z,0
2016-08-18T04:51:38.155Z,0
2016-08-18T04:52:38.153Z,0
2016-08-18T04:53:38.186Z,0
2016-08-18T04:54:38.163Z,0
2016-08-18T04:55:38.196Z,0
2016-08-18T04:56:38.219Z,0
2016-08-18T04:57:38.188Z,0
2016-08-18T04:58:38.212Z,5
2016-08-18T04:59:38.183Z,5
2016-08-18T05:00:38.214Z,5
2016-08-18T05:01:38.219Z,5
2016-08-18T05:02:38.219Z,5
2016-08-18T05:03:38.252Z,5
2016-08-18T05:04:38.224Z,5
2016-08-18T05:05:38.280Z,5
2016-08-18T05:06:38.249Z,5
2016-08-18T05:07:38.266Z,5
2016-08-18T05:08:38.287Z,5
2016-08-18T05:09:38.248Z,5
2016-08-18T05:10:38.291Z,5
2016-08-18T05:11:38.319Z,5
2016-08-18T05:12:38.278Z,5
2016-08-18T05:13:38.311Z,5
2016-08-18T05:14:38.327Z,5
2016-08-18T05:15:38.326Z,5
2016-08-18T05:16:38.319Z,5
2016-08-18T05:17:38.383Z,5
2016-08-18T05:18:38.319Z,5
2016-08-18T05:19:38.346Z,5
2016-08-18T05:20:38.328Z,5
2016-08-18T05:21:38.348Z,5
2016-08-18T05:22:38.384Z,5
2016-08-18T05:23:38.356Z,5
2016-08-18T05:24:38.393Z,5
2016-08-18T05:25:38.378Z,5
2016-08-18T05:26:38.371Z,5
2016-08-18T05:27:38.396Z,5
2016-08-18T05:28:38.400Z,5
2016-08-18T05:29:38.422Z,5
2016-08-18T05:30:38.416Z,5
2016-08-18T05:31:38.427Z,5
2016-08-18T05:32:38.428Z,5
2016-08-18T05:33:38.420Z,5
2016-08-18T05:34:38.430Z,5
2016-08-18T05:35:38.428Z,5
2016-08-18T05:36:38.429Z,5
2016-08-18T05:37:38.444Z,5
2016-08-18T05:38:38.501Z,5
2016-08-18T05:39:38.486Z,5
2016-08-18T05:40:38.448Z,5
2016-08-18T05:41:38.496Z,5
2016-08-18T05:42:38.494Z,5
2016-08-18T05:43:38.497Z,5
2016-08-18T05:44:38.520Z,5
2016-08-18T05:45:38.631Z,5
2016-08-18T05:46:38.524Z,5
2016-08-18T05:47:38.539Z,5
2016-08-18T05:48:38.532Z,5
2016-08-18T05:49:38.532Z,5
2016-08-18T05:50:38.545Z,5
2016-08-18T05:51:38.520Z,5
2016-08-18T05:52:38.605Z,5
2016-08-18T05:53:38.538Z,5
2016-08-18T05:54:38.781Z,5
2016-08-18T05:55:39.268Z,5
2016-08-18T05:56:38.612Z,5
2016-08-18T05:57:38.580Z,5
2016-08-18T05:58:38.595Z,5
2016-08-18T05:59:38.603Z,5
2016-08-18T06:00:38.631Z,5
2016-08-18T06:01:38.604Z,5
2016-08-18T06:02:38.645Z,5
2016-08-18T06:03:38.642Z,5
2016-08-18T06:04:38.618Z,5
2016-08-18T06:05:38.666Z,10
2016-08-18T06:06:38.634Z,10
2016-08-18T06:07:38.680Z,10
2016-08-18T06:08:38.679Z,10
2016-08-18T06:09:38.702Z,10
2016-08-18T06:10:38.679Z,10
2016-08-18T06:11:38.681Z,10
2016-08-18T06:12:38.684Z,10
2016-08-18T06:13:38.688Z,10
2016-08-18T06:14:38.690Z,10
2016-08-18T06:15:38.685Z,10
2016-08-18T06:16:38.722Z,10
2016-08-18T06:17:38.721Z,10
2016-08-18T06:18:38.742Z,10
2016-08-18T06:19:38.768Z,10
2016-08-18T06:20:38.749Z,10
2016-08-18T06:21:38.739Z,10
2016-08-18T06:22:38.791Z,10
2016-08-18T06:23:38.830Z,10
2016-08-18T06:24:38.794Z,10
2016-08-18T06:25:39.233Z,10
2016-08-18T06:26:38.788Z,10
2016-08-18T06:27:38.792Z,15
2016-08-18T06:28:38.790Z,15
2016-08-18T06:29:39.503Z,15
2016-08-18T06:30:38.788Z,15
2016-08-18T06:31:38.821Z,15
2016-08-18T06:32:38.839Z,15
2016-08-18T06:33:38.822Z,10
2016-08-18T06:34:38.859Z,10
2016-08-18T06:35:38.849Z,10
2016-08-18T06:36:38.866Z,15
2016-08-18T06:37:39.590Z,15
2016-08-18T06:38:38.890Z,10
2016-08-18T06:39:38.855Z,10
2016-08-18T06:40:38.922Z,10
2016-08-18T06:41:38.883Z,10
2016-08-18T06:42:38.930Z,10
2016-08-18T06:43:38.979Z,10
2016-08-18T06:44:38.936Z,10
2016-08-18T06:45:38.970Z,10
2016-08-18T06:46:38.945Z,10
2016-08-18T06:47:38.953Z,10
2016-08-18T06:48:38.958Z,5
2016-08-18T06:49:38.959Z,5
2016-08-18T06:50:38.949Z,5
2016-08-18T06:51:38.988Z,5
2016-08-18T06:52:38.959Z,5
2016-08-18T06:53:38.980Z,5
2016-08-18T06:54:39.002Z,10
2016-08-18T06:55:39.018Z,10
2016-08-18T06:56:39.018Z,5
2016-08-18T06:57:38.979Z,5
2016-08-18T06:58:39.030Z,10
2016-08-18T06:59:39.008Z,10
2016-08-18T07:00:39.055Z,10
2016-08-18T07:01:39.054Z,10
2016-08-18T07:02:39.080Z,10
2016-08-18T07:03:39.743Z,10
2016-08-18T07:04:39.045Z,10
2016-08-18T07:05:39.076Z,10
2016-08-18T07:06:39.100Z,15
2016-08-18T07:07:39.109Z,10
2016-08-18T07:08:39.098Z,10
2016-08-18T07:09:39.125Z,10
2016-08-18T07:10:39.133Z,10
2016-08-18T07:11:39.842Z,10
2016-08-18T07:12:39.107Z,10
2016-08-18T07:13:39.137Z,10
2016-08-18T07:14:39.152Z,10
2016-08-18T07:15:39.140Z,10
2016-08-18T07:16:39.186Z,10
2016-08-18T07:17:39.248Z,10
2016-08-18T07:18:39.154Z,10
2016-08-18T07:19:39.205Z,10
2016-08-18T07:20:39.218Z,10
2016-08-18T07:21:39.223Z,10
2016-08-18T07:22:39.907Z,10
2016-08-18T07:23:39.219Z,10
2016-08-18T07:24:39.247Z,10
2016-08-18T07:25:39.219Z,10
2016-08-18T07:26:39.235Z,10
2016-08-18T07:27:39.254Z,10
2016-08-18T07:28:39.232Z,10
2016-08-18T07:29:39.261Z,10
2016-08-18T07:30:39.278Z,15
2016-08-18T07:31:39.299Z,10
2016-08-18T07:32:39.262Z,10
2016-08-18T07:33:39.306Z,10
2016-08-18T07:34:39.270Z,10
2016-08-18T07:35:39.290Z,15
2016-08-18T07:36:39.309Z,15
2016-08-18T07:37:39.325Z,10
2016-08-18T07:38:39.363Z,15
2016-08-18T07:39:39.330Z,15
2016-08-18T07:40:43.739Z,15
2016-08-18T07:41:39.339Z,15
2016-08-18T07:42:39.367Z,15
2016-08-18T07:43:39.357Z,15
2016-08-18T07:44:39.450Z,20
2016-08-18T07:45:39.473Z,20
2016-08-18T07:46:39.398Z,15
2016-08-18T07:47:39.383Z,20
2016-08-18T07:48:39.416Z,15
2016-08-18T07:49:39.430Z,15
2016-08-18T07:50:39.414Z,15
2016-08-18T07:51:39.438Z,15
2016-08-18T07:52:40.162Z,15
2016-08-18T07:53:39.454Z,15
2016-08-18T07:54:39.430Z,15
2016-08-18T07:55:39.440Z,15
2016-08-18T07:56:39.460Z,15
2016-08-18T07:57:39.501Z,15
2016-08-18T07:58:39.471Z,15
2016-08-18T07:59:39.477Z,15
2016-08-18T08:00:39.477Z,20
2016-08-18T08:01:39.498Z,15
2016-08-18T08:02:39.505Z,20
2016-08-18T08:03:39.535Z,15
2016-08-18T08:04:39.511Z,15
2016-08-18T08:05:39.513Z,15
2016-08-18T08:06:39.566Z,15
2016-08-18T08:07:39.542Z,15
2016-08-18T08:08:39.648Z,15
2016-08-18T08:09:39.560Z,15
2016-08-18T08:10:39.577Z,20
2016-08-18T08:11:39.584Z,20
2016-08-18T08:12:39.608Z,20
2016-08-18T08:13:39.629Z,20
2016-08-18T08:14:39.596Z,15
2016-08-18T08:15:39.597Z,15
2016-08-18T08:16:39.614Z,15
2016-08-18T08:17:39.634Z,15
2016-08-18T08:18:40.306Z,15
2016-08-18T08:19:39.662Z,15
2016-08-18T08:20:39.660Z,15
2016-08-18T08:21:39.724Z,15
2016-08-18T08:22:39.695Z,15
2016-08-18T08:23:40.605Z,15
2016-08-18T08:24:39.650Z,15
2016-08-18T08:25:39.691Z,20
2016-08-18T08:26:39.732Z,15
2016-08-18T08:27:39.708Z,15
2016-08-18T08:28:39.741Z,10
2016-08-18T08:29:40.465Z,15
2016-08-18T08:30:41.104Z,15
2016-08-18T08:31:39.735Z,20
2016-08-18T08:32:39.758Z,20
2016-08-18T08:33:39.781Z,20
2016-08-18T08:34:39.807Z,20
2016-08-18T08:35:44.015Z,20
2016-08-18T08:36:41.055Z,20
2016-08-18T08:37:40.116Z,20
2016-08-18T08:38:40.109Z,20
2016-08-18T08:39:39.955Z,20
2016-08-18T08:40:42.409Z,20
2016-08-18T08:41:40.626Z,20
2016-08-18T08:42:39.833Z,20
2016-08-18T08:43:40.587Z,20
2016-08-18T08:44:40.341Z,25
2016-08-18T08:45:40.343Z,25
2016-08-18T08:46:40.231Z,20
2016-08-18T08:47:39.876Z,15
2016-08-18T08:48:39.853Z,15
2016-08-18T08:49:39.876Z,10
2016-08-18T08:50:39.934Z,15
2016-08-18T08:51:39.913Z,15
2016-08-18T08:52:40.071Z,20
2016-08-18T08:53:39.941Z,25
2016-08-18T08:54:39.916Z,25
2016-08-18T08:55:39.926Z,25
2016-08-18T08:56:39.948Z,25
2016-08-18T08:57:41.701Z,20
2016-08-18T08:58:40.687Z,20
2016-08-18T08:59:40.051Z,15
2016-08-18T09:00:39.966Z,20
2016-08-18T09:01:39.991Z,20
2016-08-18T09:02:39.970Z,25
2016-08-18T09:03:40.143Z,25
2016-08-18T09:04:39.985Z,25
2016-08-18T09:05:40.925Z,25
2016-08-18T09:06:40.054Z,25
2016-08-18T09:07:40.046Z,15
2016-08-18T09:08:40.025Z,25
2016-08-18T09:09:40.039Z,25
2016-08-18T09:10:40.035Z,25
2016-08-18T09:11:40.085Z,20
2016-08-18T09:12:40.066Z,25
2016-08-18T09:13:40.079Z,20
2016-08-18T09:14:40.106Z,25
2016-08-18T09:15:40.093Z,25
2016-08-18T09:16:40.097Z,25
2016-08-18T09:17:40.096Z,30
2016-08-18T09:18:40.100Z,30
2016-08-18T09:19:40.111Z,30
2016-08-18T09:20:40.166Z,30
2016-08-18T09:21:40.151Z,25
2016-08-18T09:22:40.847Z,30
2016-08-18T09:23:40.884Z,30
2016-08-18T09:24:40.161Z,30
2016-08-18T09:25:40.188Z,35
2016-08-18T09:26:40.182Z,30
2016-08-18T09:27:40.184Z,30
2016-08-18T09:28:40.186Z,30
2016-08-18T09:29:40.228Z,25
2016-08-18T09:30:40.253Z,30
2016-08-18T09:31:40.304Z,30
2016-08-18T09:32:40.300Z,20
2016-08-18T09:33:40.246Z,20
2016-08-18T09:34:40.245Z,20
2016-08-18T09:35:41.727Z,15
2016-08-18T09:36:40.246Z,15
2016-08-18T09:37:40.277Z,20
2016-08-18T09:38:40.303Z,20
2016-08-18T09:39:40.286Z,20
2016-08-18T09:40:40.286Z,20
2016-08-18T09:41:40.317Z,25
2016-08-18T09:42:40.316Z,25
2016-08-18T09:43:40.326Z,25
2016-08-18T09:44:40.394Z,15
2016-08-18T09:45:40.392Z,20
2016-08-18T09:46:40.353Z,15
2016-08-18T09:47:40.352Z,20
2016-08-18T09:48:40.392Z,20
2016-08-18T09:49:40.370Z,20
2016-08-18T09:50:40.384Z,25
2016-08-18T09:51:40.401Z,25
2016-08-18T09:52:40.396Z,25
2016-08-18T09:53:40.410Z,25
2016-08-18T09:54:40.428Z,30
2016-08-18T09:55:40.395Z,30
2016-08-18T09:56:40.422Z,25
2016-08-18T09:57:40.458Z,25
2016-08-18T09:58:40.448Z,25
2016-08-18T09:59:40.435Z,25
2016-08-18T10:00:40.479Z,25
2016-08-18T10:01:40.603Z,25
2016-08-18T10:02:41.204Z,25
2016-08-18T10:03:40.485Z,25
2016-08-18T10:04:40.688Z,30
2016-08-18T10:05:41.472Z,30
2016-08-18T10:06:40.652Z,30
2016-08-18T10:07:40.514Z,30
2016-08-18T10:08:40.524Z,25
2016-08-18T10:09:40.520Z,35
2016-08-18T10:10:41.241Z,30
2016-08-18T10:11:40.593Z,40
2016-08-18T10:12:40.553Z,35
2016-08-18T10:13:40.576Z,40
2016-08-18T10:14:40.608Z,35
2016-08-18T10:15:40.758Z,35
2016-08-18T10:16:40.608Z,30
2016-08-18T10:17:40.569Z,25
2016-08-18T10:18:40.612Z,20
2016-08-18T10:19:40.633Z,20
2016-08-18T10:20:40.623Z,20
2016-08-18T10:21:40.631Z,20
2016-08-18T10:22:40.627Z,15
2016-08-18T10:23:40.667Z,15
2016-08-18T10:24:40.655Z,15
2016-08-18T10:25:41.442Z,15
2016-08-18T10:26:40.655Z,15
2016-08-18T10:27:40.691Z,15
2016-08-18T10:28:40.715Z,15
2016-08-18T10:29:41.378Z,20
2016-08-18T10:30:40.688Z,20
2016-08-18T10:31:40.712Z,30
2016-08-18T10:32:41.430Z,35
2016-08-18T10:33:40.734Z,35
2016-08-18T10:34:40.740Z,35
2016-08-18T10:35:42.932Z,35
2016-08-18T10:36:40.769Z,35
2016-08-18T10:37:40.757Z,35
2016-08-18T10:38:40.781Z,35
2016-08-18T10:39:40.778Z,35
2016-08-18T10:40:40.809Z,35
2016-08-18T10:41:40.808Z,35
2016-08-18T10:42:40.791Z,35
2016-08-18T10:43:40.817Z,40
2016-08-18T10:44:40.811Z,40
2016-08-18T10:45:40.878Z,40
2016-08-18T10:46:40.857Z,40
2016-08-18T10:47:40.862Z,35
2016-08-18T10:48:40.839Z,25
2016-08-18T10:49:40.891Z,25
2016-08-18T10:50:40.897Z,40
2016-08-18T10:51:40.914Z,30
2016-08-18T10:52:40.889Z,40
2016-08-18T10:53:40.901Z,40
2016-08-18T10:54:41.633Z,45
2016-08-18T10:55:40.951Z,50
2016-08-18T10:56:40.928Z,45
2016-08-18T10:57:40.922Z,35
2016-08-18T10:58:40.953Z,30
2016-08-18T10:59:40.967Z,25
2016-08-18T11:00:40.979Z,40
2016-08-18T11:01:41.008Z,40
2016-08-18T11:02:41.013Z,40
2016-08-18T11:03:40.976Z,35
2016-08-18T11:04:41.667Z,35
2016-08-18T11:05:41.019Z,30
2016-08-18T11:06:41.019Z,20
2016-08-18T11:07:40.993Z,15
2016-08-18T11:08:41.033Z,15
2016-08-18T11:09:41.038Z,15
2016-08-18T11:10:41.081Z,15
2016-08-18T11:11:41.045Z,15
2016-08-18T11:12:41.094Z,10
2016-08-18T11:13:41.101Z,10
2016-08-18T11:14:41.099Z,10
2016-08-18T11:15:41.070Z,10
2016-08-18T11:16:41.084Z,10
2016-08-18T11:17:41.106Z,10
2016-08-18T11:18:41.138Z,5
2016-08-18T11:19:41.842Z,5
2016-08-18T11:20:41.133Z,5
2016-08-18T11:21:41.165Z,5
2016-08-18T11:22:41.155Z,10
2016-08-18T11:23:41.154Z,5
2016-08-18T11:24:41.218Z,5
2016-08-18T11:25:41.167Z,5
2016-08-18T11:26:41.173Z,5
2016-08-18T11:27:41.169Z,5
2016-08-18T11:28:41.212Z,5
2016-08-18T11:29:41.230Z,5
2016-08-18T11:30:41.215Z,5
2016-08-18T11:31:41.250Z,5
2016-08-18T11:32:41.241Z,5
2016-08-18T11:33:41.267Z,5
2016-08-18T11:34:41.274Z,5
2016-08-18T11:35:41.459Z,5
2016-08-18T11:36:41.285Z,5
2016-08-18T11:37:41.305Z,5
2016-08-18T11:38:41.338Z,5
2016-08-18T11:39:41.566Z,5
2016-08-18T11:40:41.352Z,5
2016-08-18T11:41:41.321Z,5
2016-08-18T11:42:41.355Z,5
2016-08-18T11:43:41.354Z,5
2016-08-18T11:44:42.071Z,0
2016-08-18T11:45:41.354Z,0
2016-08-18T11:46:41.389Z,0
2016-08-18T11:47:41.351Z,0
2016-08-18T11:48:41.485Z,5
2016-08-18T11:49:42.146Z,5
2016-08-18T11:50:42.108Z,5
2016-08-18T11:51:41.452Z,10
2016-08-18T11:52:41.417Z,10
2016-08-18T11:53:41.432Z,10
2016-08-18T11:54:41.441Z,10
2016-08-18T11:55:41.441Z,10
2016-08-18T11:56:41.448Z,5
2016-08-18T12:12:08.025Z,5
2016-08-18T12:13:08.047Z,5
2016-08-18T12:14:08.126Z,5
2016-08-18T12:15:08.640Z,5
2016-08-18T12:16:08.903Z,0
2016-08-18T12:17:08.659Z,0
2016-08-18T12:18:08.938Z,0
2016-08-18T12:19:08.663Z,5
2016-08-18T12:20:08.775Z,5
2016-08-18T12:21:08.810Z,5
2016-08-18T12:22:08.710Z,5
2016-08-18T12:23:08.720Z,5
2016-08-18T12:24:08.711Z,5
2016-08-18T12:25:08.715Z,5
2016-08-18T12:26:09.119Z,5
2016-08-18T12:27:08.717Z,5
2016-08-18T12:28:08.925Z,10
2016-08-18T12:29:08.768Z,10
2016-08-18T12:30:08.764Z,10
2016-08-18T12:31:08.749Z,15
2016-08-18T12:32:08.784Z,15
2016-08-18T12:33:08.785Z,15
2016-08-18T12:34:08.812Z,20
2016-08-18T12:35:08.974Z,25
2016-08-18T12:36:08.806Z,30
2016-08-18T12:37:08.843Z,35
2016-08-18T12:38:08.808Z,35
2016-08-18T12:39:08.981Z,40
2016-08-18T12:40:08.838Z,45
2016-08-18T12:41:08.862Z,50
2016-08-18T12:42:08.852Z,50
2016-08-18T12:43:08.871Z,50
2016-08-18T12:44:08.949Z,55
2016-08-18T12:45:08.884Z,55
2016-08-18T12:46:09.109Z,55
2016-08-18T12:47:08.937Z,55
2016-08-18T12:48:08.943Z,55
2016-08-18T12:49:08.998Z,50
2016-08-18T12:50:08.937Z,50
2016-08-18T12:51:08.933Z,50
2016-08-18T12:52:08.920Z,50
2016-08-18T12:53:08.963Z,50
2016-08-18T12:54:08.950Z,50
2016-08-18T12:55:08.946Z,50
2016-08-18T12:56:08.978Z,50
2016-08-18T12:57:08.988Z,55
2016-08-18T12:58:09.006Z,55
2016-08-18T12:59:09.008Z,55
2016-08-18T13:00:08.994Z,55
2016-08-18T13:01:09.014Z,55
2016-08-18T13:02:09.024Z,60
2016-08-18T13:03:09.060Z,55
2016-08-18T13:04:09.036Z,55
2016-08-18T13:05:09.066Z,50
2016-08-18T13:06:09.059Z,55
2016-08-18T13:07:09.079Z,55
2016-08-18T13:08:09.093Z,55
2016-08-18T13:09:09.110Z,55
2016-08-18T13:10:09.077Z,55
2016-08-18T13:11:09.130Z,55
2016-08-18T13:12:09.114Z,55
2016-08-18T13:13:09.109Z,60
2016-08-18T13:14:09.148Z,55
2016-08-18T13:15:09.163Z,55
2016-08-18T13:16:09.145Z,55
2016-08-18T13:17:09.168Z,50
2016-08-18T13:18:09.159Z,50
2016-08-18T13:19:09.155Z,50
2016-08-18T13:20:09.201Z,45
2016-08-18T13:21:09.202Z,45
2016-08-18T13:22:09.201Z,45
2016-08-18T13:23:09.213Z,45
2016-08-18T13:24:09.256Z,40
2016-08-18T13:25:09.248Z,40
2016-08-18T13:26:09.222Z,40
2016-08-18T13:27:09.226Z,35
2016-08-18T13:28:09.260Z,35
2016-08-18T13:29:09.255Z,40
2016-08-18T13:30:09.260Z,40
2016-08-18T13:31:09.250Z,40
2016-08-18T13:32:09.270Z,40
2016-08-18T13:33:09.304Z,40
2016-08-18T13:34:09.319Z,40
2016-08-18T13:35:09.312Z,45
2016-08-18T13:36:09.332Z,45
2016-08-18T13:37:09.353Z,45
2016-08-18T13:38:09.344Z,45
2016-08-18T13:39:09.350Z,45
2016-08-18T13:40:09.350Z,40
2016-08-18T13:41:09.391Z,40
2016-08-18T13:42:09.385Z,45
2016-08-18T13:43:09.382Z,45
2016-08-18T13:44:09.431Z,45
2016-08-18T13:45:09.411Z,45
2016-08-18T13:46:09.461Z,50
2016-08-18T13:47:09.441Z,40
2016-08-18T13:48:09.430Z,45
2016-08-18T13:49:09.454Z,45
2016-08-18T13:50:09.448Z,45
2016-08-18T13:51:09.446Z,45
2016-08-18T13:52:09.471Z,50
2016-08-18T13:53:09.482Z,50
2016-08-18T13:54:09.500Z,40
2016-08-18T13:55:09.503Z,35
2016-08-18T13:56:09.482Z,35
2016-08-18T13:57:10.236Z,30
2016-08-18T13:58:09.517Z,35
2016-08-18T13:59:09.525Z,35
2016-08-18T14:00:09.555Z,35
2016-08-18T14:01:09.542Z,35
2016-08-18T14:02:09.550Z,35
2016-08-18T14:03:09.584Z,30
2016-08-18T14:04:09.589Z,30
2016-08-18T14:05:09.597Z,30
2016-08-18T14:06:09.582Z,30
2016-08-18T14:07:09.582Z,25
2016-08-18T14:08:09.585Z,25
2016-08-18T14:09:09.626Z,25
2016-08-18T14:10:09.629Z,20
2016-08-18T14:11:09.633Z,20
2016-08-18T14:12:09.649Z,15
2016-08-18T14:13:09.658Z,15
2016-08-18T14:14:09.682Z,15
2016-08-18T14:15:09.690Z,15
2016-08-18T14:16:09.666Z,10
2016-08-18T14:17:09.694Z,10
2016-08-18T14:18:09.690Z,10
2016-08-18T14:19:09.708Z,10
2016-08-18T14:20:09.751Z,10
2016-08-18T14:21:09.764Z,10
2016-08-18T14:22:09.730Z,10
2016-08-18T14:23:09.756Z,10
2016-08-18T14:24:09.755Z,10
2016-08-18T14:25:09.777Z,10
2016-08-18T14:26:09.781Z,10
2016-08-18T14:27:09.815Z,10
2016-08-18T14:28:09.792Z,10
2016-08-18T14:29:09.800Z,10
2016-08-18T14:30:09.815Z,10
2016-08-18T14:31:09.839Z,10
2016-08-18T14:32:09.861Z,10
2016-08-18T14:33:09.827Z,5
2016-08-18T14:34:09.848Z,5
2016-08-18T14:35:10.567Z,5
2016-08-18T14:36:09.860Z,5
2016-08-18T14:37:09.910Z,5
2016-08-18T14:38:09.907Z,0
2016-08-18T14:39:09.867Z,0
2016-08-18T14:40:09.933Z,0
2016-08-18T14:41:09.917Z,0
2016-08-18T14:42:09.931Z,0
2016-08-18T14:43:09.912Z,0
2016-08-18T14:44:09.944Z,0
2016-08-18T14:45:09.951Z,0
2016-08-18T14:46:10.189Z,0